sensor_id;sensor_type;location;lat;lon;timestamp;pressure;altitude;pressure_sealevel;temperature;humidity
59170;BME280;52474;52.236;5.114;2024-03-22T00:00:13;101887.81;;;10.45;100.00
59170;BME280;52474;52.236;5.114;2024-03-22T00:02:39;101895.69;;;10.46;100.00
59170;BME280;52474;52.236;5.114;2024-03-22T00:05:05;101888.66;;;10.45;100.00
59170;BME280;52474;52.236;5.114;2024-03-22T00:07:30;101886.25;;;10.42;100.00
59170;BME280;52474;52.236;5.114;2024-03-22T00:09:56;101868.97;;;10.37;100.00
59170;BME280;52474;52.236;5.114;2024-03-22T00:12:22;101853.41;;;10.32;100.00
59170;BME280;52474;52.236;5.114;2024-03-22T00:14:49;101864.44;;;10.39;100.00
59170;BME280;52474;52.236;5.114;2024-03-22T00:17:16;101844.81;;;10.28;100.00
59170;BME280;52474;52.236;5.114;2024-03-22T00:19:42;101854.16;;;10.34;100.00
59170;BME280;52474;52.236;5.114;2024-03-22T00:22:09;101848.09;;;10.32;100.00
59170;BME280;52474;52.236;5.114;2024-03-22T00:24:34;101852.97;;;10.38;100.00
59170;BME280;52474;52.236;5.114;2024-03-22T00:27:00;101847.03;;;10.35;100.00
59170;BME280;52474;52.236;5.114;2024-03-22T00:29:25;101831.91;;;10.37;100.00
59170;BME280;52474;52.236;5.114;2024-03-22T00:31:52;101819.41;;;10.39;100.00
59170;BME280;52474;52.236;5.114;2024-03-22T00:34:18;101824.81;;;10.37;100.00
59170;BME280;52474;52.236;5.114;2024-03-22T00:36:44;101804.91;;;10.31;100.00
59170;BME280;52474;52.236;5.114;2024-03-22T00:39:10;101800.22;;;10.35;100.00
59170;BME280;52474;52.236;5.114;2024-03-22T00:41:36;101783.91;;;10.28;100.00
59170;BME280;52474;52.236;5.114;2024-03-22T00:44:01;101795.38;;;10.29;100.00
59170;BME280;52474;52.236;5.114;2024-03-22T00:46:27;101782.97;;;10.29;100.00
59170;BME280;52474;52.236;5.114;2024-03-22T00:48:53;101791.66;;;10.31;100.00
59170;BME280;52474;52.236;5.114;2024-03-22T00:51:18;101795.44;;;10.27;100.00
59170;BME280;52474;52.236;5.114;2024-03-22T00:53:44;101799.03;;;10.26;100.00
59170;BME280;52474;52.236;5.114;2024-03-22T00:56:10;101782.81;;;10.18;100.00
59170;BME280;52474;52.236;5.114;2024-03-22T00:58:35;101793.75;;;10.26;100.00
59170;BME280;52474;52.236;5.114;2024-03-22T01:01:01;101792.03;;;10.25;100.00
59170;BME280;52474;52.236;5.114;2024-03-22T01:03:26;101791.19;;;10.25;100.00
59170;BME280;52474;52.236;5.114;2024-03-22T01:05:52;101795.84;;;10.21;100.00
59170;BME280;52474;52.236;5.114;2024-03-22T01:08:18;101800.28;;;10.21;100.00
59170;BME280;52474;52.236;5.114;2024-03-22T01:10:43;101803.78;;;10.21;100.00
59170;BME280;52474;52.236;5.114;2024-03-22T01:13:09;101802.19;;;10.19;100.00
59170;BME280;52474;52.236;5.114;2024-03-22T01:15:35;101792.13;;;10.11;100.00
59170;BME280;52474;52.236;5.114;2024-03-22T01:18:01;101801.47;;;10.17;100.00
59170;BME280;52474;52.236;5.114;2024-03-22T01:20:26;101793.41;;;10.18;100.00
59170;BME280;52474;52.236;5.114;2024-03-22T01:22:52;101784.84;;;10.15;100.00
59170;BME280;52474;52.236;5.114;2024-03-22T01:25:18;101793.84;;;10.12;100.00
59170;BME280;52474;52.236;5.114;2024-03-22T01:27:43;101774.03;;;10.05;100.00
59170;BME280;52474;52.236;5.114;2024-03-22T01:30:09;101783.88;;;10.16;100.00
59170;BME280;52474;52.236;5.114;2024-03-22T01:32:36;101783.66;;;10.06;100.00
59170;BME280;52474;52.236;5.114;2024-03-22T01:35:02;101771.38;;;10.05;100.00
59170;BME280;52474;52.236;5.114;2024-03-22T01:37:28;101783.03;;;10.15;100.00
59170;BME280;52474;52.236;5.114;2024-03-22T01:39:53;101783.25;;;10.12;100.00
59170;BME280;52474;52.236;5.114;2024-03-22T01:42:19;101778.06;;;10.10;100.00
59170;BME280;52474;52.236;5.114;2024-03-22T01:44:45;101781.44;;;10.13;100.00
59170;BME280;52474;52.236;5.114;2024-03-22T01:47:10;101779.78;;;10.12;100.00
59170;BME280;52474;52.236;5.114;2024-03-22T01:49:36;101766.31;;;10.02;100.00
59170;BME280;52474;52.236;5.114;2024-03-22T01:52:03;101782.41;;;10.12;100.00
59170;BME280;52474;52.236;5.114;2024-03-22T01:54:28;101765.88;;;9.95;100.00
59170;BME280;52474;52.236;5.114;2024-03-22T01:56:56;101782.81;;;10.05;100.00
59170;BME280;52474;52.236;5.114;2024-03-22T01:59:21;101764.91;;;9.96;100.00
59170;BME280;52474;52.236;5.114;2024-03-22T02:01:47;101763.44;;;9.92;100.00
59170;BME280;52474;52.236;5.114;2024-03-22T02:04:14;101784.09;;;10.00;100.00
59170;BME280;52474;52.236;5.114;2024-03-22T02:06:40;101779.94;;;9.96;100.00
59170;BME280;52474;52.236;5.114;2024-03-22T02:09:05;101779.09;;;9.95;100.00
59170;BME280;52474;52.236;5.114;2024-03-22T02:11:33;101774.75;;;9.94;100.00
59170;BME280;52474;52.236;5.114;2024-03-22T02:13:59;101753.16;;;9.87;100.00
59170;BME280;52474;52.236;5.114;2024-03-22T02:16:25;101764.38;;;9.91;100.00
59170;BME280;52474;52.236;5.114;2024-03-22T02:18:50;101762.69;;;9.90;100.00
59170;BME280;52474;52.236;5.114;2024-03-22T02:21:16;101741.00;;;9.72;100.00
59170;BME280;52474;52.236;5.114;2024-03-22T02:23:42;101761.09;;;9.87;100.00
59170;BME280;52474;52.236;5.114;2024-03-22T02:26:07;101729.34;;;9.75;100.00
59170;BME280;52474;52.236;5.114;2024-03-22T02:28:34;101746.28;;;9.85;100.00
59170;BME280;52474;52.236;5.114;2024-03-22T02:31:02;101732.84;;;9.75;100.00
59170;BME280;52474;52.236;5.114;2024-03-22T02:33:28;101745.75;;;9.80;100.00
59170;BME280;52474;52.236;5.114;2024-03-22T02:35:54;101717.38;;;9.69;100.00
59170;BME280;52474;52.236;5.114;2024-03-22T02:38:20;101735.47;;;9.75;100.00
59170;BME280;52474;52.236;5.114;2024-03-22T02:40:47;101711.53;;;9.64;100.00
59170;BME280;52474;52.236;5.114;2024-03-22T02:43:13;101719.81;;;9.72;100.00
59170;BME280;52474;52.236;5.114;2024-03-22T02:45:39;101702.47;;;9.68;100.00
59170;BME280;52474;52.236;5.114;2024-03-22T02:48:05;101698.22;;;9.65;100.00
59170;BME280;52474;52.236;5.114;2024-03-22T02:50:38;101666.47;;;9.53;100.00
59170;BME280;52474;52.236;5.114;2024-03-22T02:53:04;101686.06;;;9.63;100.00
59170;BME280;52474;52.236;5.114;2024-03-22T02:55:30;101682.44;;;9.64;100.00
59170;BME280;52474;52.236;5.114;2024-03-22T02:58:01;101683.28;;;9.64;100.00
59170;BME280;52474;52.236;5.114;2024-03-22T03:00:26;101670.06;;;9.64;100.00
59170;BME280;52474;52.236;5.114;2024-03-22T03:02:52;101671.88;;;9.64;100.00
59170;BME280;52474;52.236;5.114;2024-03-22T03:05:18;101663.50;;;9.57;100.00
59170;BME280;52474;52.236;5.114;2024-03-22T03:07:43;101674.72;;;9.61;100.00
59170;BME280;52474;52.236;5.114;2024-03-22T03:10:09;101647.84;;;9.54;100.00
59170;BME280;52474;52.236;5.114;2024-03-22T03:12:35;101644.38;;;9.54;100.00
59170;BME280;52474;52.236;5.114;2024-03-22T03:15:01;101625.53;;;9.45;100.00
59170;BME280;52474;52.236;5.114;2024-03-22T03:17:29;101647.75;;;9.56;100.00
59170;BME280;52474;52.236;5.114;2024-03-22T03:19:54;101639.28;;;9.63;100.00
59170;BME280;52474;52.236;5.114;2024-03-22T03:22:20;101634.84;;;9.64;100.00
59170;BME280;52474;52.236;5.114;2024-03-22T03:24:45;101626.28;;;9.60;100.00
59170;BME280;52474;52.236;5.114;2024-03-22T03:27:11;101628.09;;;9.60;100.00
59170;BME280;52474;52.236;5.114;2024-03-22T03:29:37;101617.38;;;9.61;100.00
59170;BME280;52474;52.236;5.114;2024-03-22T03:32:03;101620.25;;;9.58;100.00
59170;BME280;52474;52.236;5.114;2024-03-22T03:34:28;101597.28;;;9.46;100.00
59170;BME280;52474;52.236;5.114;2024-03-22T03:36:54;101610.81;;;9.54;100.00
59170;BME280;52474;52.236;5.114;2024-03-22T03:39:20;101609.78;;;9.57;100.00
59170;BME280;52474;52.236;5.114;2024-03-22T03:41:46;101598.22;;;9.45;100.00
59170;BME280;52474;52.236;5.114;2024-03-22T03:44:11;101615.19;;;9.55;100.00
59170;BME280;52474;52.236;5.114;2024-03-22T03:46:37;101597.19;;;9.48;100.00
59170;BME280;52474;52.236;5.114;2024-03-22T03:49:02;101597.28;;;9.46;100.00
59170;BME280;52474;52.236;5.114;2024-03-22T03:51:28;101618.66;;;9.56;100.00
59170;BME280;52474;52.236;5.114;2024-03-22T03:53:54;101613.25;;;9.57;100.00
59170;BME280;52474;52.236;5.114;2024-03-22T03:56:19;101607.34;;;9.54;100.00
59170;BME280;52474;52.236;5.114;2024-03-22T03:58:46;101605.22;;;9.46;100.00
59170;BME280;52474;52.236;5.114;2024-03-22T04:01:11;101614.84;;;9.47;100.00
59170;BME280;52474;52.236;5.114;2024-03-22T04:03:37;101606.91;;;9.47;100.00
59170;BME280;52474;52.236;5.114;2024-03-22T04:06:03;101581.44;;;9.33;100.00
59170;BME280;52474;52.236;5.114;2024-03-22T04:08:28;101593.81;;;9.45;100.00
59170;BME280;52474;52.236;5.114;2024-03-22T04:10:56;101599.09;;;9.45;100.00
59170;BME280;52474;52.236;5.114;2024-03-22T04:13:23;101602.69;;;9.44;100.00
59170;BME280;52474;52.236;5.114;2024-03-22T04:15:49;101602.69;;;9.44;100.00
59170;BME280;52474;52.236;5.114;2024-03-22T04:18:15;101606.06;;;9.46;100.00
59170;BME280;52474;52.236;5.114;2024-03-22T04:20:40;101598.97;;;9.47;100.00
59170;BME280;52474;52.236;5.114;2024-03-22T04:23:06;101590.72;;;9.39;100.00
59170;BME280;52474;52.236;5.114;2024-03-22T04:25:31;101606.81;;;9.49;100.00
59170;BME280;52474;52.236;5.114;2024-03-22T04:27:57;101591.56;;;9.39;100.00
59170;BME280;52474;52.236;5.114;2024-03-22T04:30:23;101606.16;;;9.45;100.00
59170;BME280;52474;52.236;5.114;2024-03-22T04:32:49;101612.50;;;9.42;100.00
59170;BME280;52474;52.236;5.114;2024-03-22T04:35:14;101597.16;;;9.35;100.00
59170;BME280;52474;52.236;5.114;2024-03-22T04:37:40;101601.84;;;9.44;100.00
59170;BME280;52474;52.236;5.114;2024-03-22T04:40:06;101607.78;;;9.48;100.00
59170;BME280;52474;52.236;5.114;2024-03-22T04:42:32;101606.28;;;9.43;100.00
59170;BME280;52474;52.236;5.114;2024-03-22T04:44:57;101592.41;;;9.40;100.00
59170;BME280;52474;52.236;5.114;2024-03-22T04:47:23;101605.53;;;9.41;100.00
59170;BME280;52474;52.236;5.114;2024-03-22T04:49:49;101609.56;;;9.47;100.00
59170;BME280;52474;52.236;5.114;2024-03-22T04:52:14;101604.25;;;9.47;100.00
59170;BME280;52474;52.236;5.114;2024-03-22T04:54:40;101611.56;;;9.43;100.00
59170;BME280;52474;52.236;5.114;2024-03-22T04:57:06;101595.41;;;9.35;100.00
59170;BME280;52474;52.236;5.114;2024-03-22T04:59:31;101621.31;;;9.43;100.00
59170;BME280;52474;52.236;5.114;2024-03-22T05:01:57;101608.81;;;9.32;100.00
59170;BME280;52474;52.236;5.114;2024-03-22T05:04:23;101613.91;;;9.35;100.00
59170;BME280;52474;52.236;5.114;2024-03-22T05:06:49;101621.41;;;9.41;100.00
59170;BME280;52474;52.236;5.114;2024-03-22T05:09:14;101610.19;;;9.38;100.00
59170;BME280;52474;52.236;5.114;2024-03-22T05:11:40;101607.00;;;9.33;100.00
59170;BME280;52474;52.236;5.114;2024-03-22T05:14:06;101594.53;;;9.22;100.00
59170;BME280;52474;52.236;5.114;2024-03-22T05:16:32;101604.69;;;9.28;100.00
59170;BME280;52474;52.236;5.114;2024-03-22T05:18:58;101602.88;;;9.29;100.00
59170;BME280;52474;52.236;5.114;2024-03-22T05:21:24;101595.34;;;9.22;100.00
59170;BME280;52474;52.236;5.114;2024-03-22T05:23:49;101583.72;;;9.12;100.00
59170;BME280;52474;52.236;5.114;2024-03-22T05:26:15;101583.72;;;9.12;100.00
59170;BME280;52474;52.236;5.114;2024-03-22T05:28:41;101595.78;;;9.16;100.00
59170;BME280;52474;52.236;5.114;2024-03-22T05:31:06;101592.72;;;9.10;100.00
59170;BME280;52474;52.236;5.114;2024-03-22T05:33:32;101588.16;;;9.12;100.00
59170;BME280;52474;52.236;5.114;2024-03-22T05:35:57;101579.03;;;9.03;100.00
59170;BME280;52474;52.236;5.114;2024-03-22T05:38:24;101570.81;;;9.08;100.00
59170;BME280;52474;52.236;5.114;2024-03-22T05:40:50;101577.28;;;9.16;100.00
59170;BME280;52474;52.236;5.114;2024-03-22T05:43:16;101563.75;;;9.08;100.00
59170;BME280;52474;52.236;5.114;2024-03-22T05:45:41;101571.69;;;9.21;100.00
59170;BME280;52474;52.236;5.114;2024-03-22T05:48:07;101576.69;;;9.26;100.00
59170;BME280;52474;52.236;5.114;2024-03-22T05:50:33;101565.75;;;9.17;100.00
59170;BME280;52474;52.236;5.114;2024-03-22T05:52:58;101570.72;;;9.22;100.00
59170;BME280;52474;52.236;5.114;2024-03-22T05:55:24;101568.09;;;9.22;100.00
59170;BME280;52474;52.236;5.114;2024-03-22T05:57:52;101565.53;;;9.20;100.00
59170;BME280;52474;52.236;5.114;2024-03-22T06:00:18;101558.78;;;9.16;100.00
59170;BME280;52474;52.236;5.114;2024-03-22T06:02:44;101561.75;;;9.24;100.00
59170;BME280;52474;52.236;5.114;2024-03-22T06:05:09;101554.47;;;9.28;100.00
59170;BME280;52474;52.236;5.114;2024-03-22T06:07:35;101558.38;;;9.35;100.00
59170;BME280;52474;52.236;5.114;2024-03-22T06:10:08;101550.66;;;9.32;100.00
59170;BME280;52474;52.236;5.114;2024-03-22T06:12:35;101536.69;;;9.30;100.00
59170;BME280;52474;52.236;5.114;2024-03-22T06:15:01;101563.84;;;9.45;100.00
59170;BME280;52474;52.236;5.114;2024-03-22T06:17:27;101547.59;;;9.38;100.00
59170;BME280;52474;52.236;5.114;2024-03-22T06:19:52;101546.53;;;9.41;100.00
59170;BME280;52474;52.236;5.114;2024-03-22T06:22:18;101556.56;;;9.49;100.00
59170;BME280;52474;52.236;5.114;2024-03-22T06:24:44;101552.78;;;9.53;100.00
59170;BME280;52474;52.236;5.114;2024-03-22T06:27:10;101563.88;;;9.58;100.00
59170;BME280;52474;52.236;5.114;2024-03-22T06:29:35;101550.84;;;9.55;100.00
59170;BME280;52474;52.236;5.114;2024-03-22T06:32:01;101565.97;;;9.65;100.00
59170;BME280;52474;52.236;5.114;2024-03-22T06:34:27;101571.28;;;9.65;100.00
59170;BME280;52474;52.236;5.114;2024-03-22T06:36:52;101562.81;;;9.60;100.00
59170;BME280;52474;52.236;5.114;2024-03-22T06:39:18;101579.72;;;9.71;100.00
59170;BME280;52474;52.236;5.114;2024-03-22T06:41:45;101578.66;;;9.73;100.00
59170;BME280;52474;52.236;5.114;2024-03-22T06:44:10;101577.50;;;9.77;100.00
59170;BME280;52474;52.236;5.114;2024-03-22T06:46:37;101565.03;;;9.66;100.00
59170;BME280;52474;52.236;5.114;2024-03-22T06:49:03;101569.66;;;9.76;100.00
59170;BME280;52474;52.236;5.114;2024-03-22T06:51:29;101578.56;;;9.75;100.00
59170;BME280;52474;52.236;5.114;2024-03-22T06:53:54;101568.41;;;9.68;100.00
59170;BME280;52474;52.236;5.114;2024-03-22T06:56:20;101585.53;;;9.76;100.00
59170;BME280;52474;52.236;5.114;2024-03-22T06:58:46;101575.06;;;9.74;100.00
59170;BME280;52474;52.236;5.114;2024-03-22T07:01:12;101565.03;;;9.66;100.00
59170;BME280;52474;52.236;5.114;2024-03-22T07:03:37;101571.34;;;9.77;100.00
59170;BME280;52474;52.236;5.114;2024-03-22T07:06:03;101583.41;;;9.81;100.00
59170;BME280;52474;52.236;5.114;2024-03-22T07:08:31;101570.19;;;9.81;100.00
59170;BME280;52474;52.236;5.114;2024-03-22T07:10:57;101583.63;;;9.91;100.00
59170;BME280;52474;52.236;5.114;2024-03-22T07:13:22;101581.81;;;9.91;100.00
59170;BME280;52474;52.236;5.114;2024-03-22T07:15:48;101573.25;;;9.87;100.00
59170;BME280;52474;52.236;5.114;2024-03-22T07:18:15;101580.53;;;9.84;100.00
59170;BME280;52474;52.236;5.114;2024-03-22T07:20:41;101581.94;;;9.77;100.00
59170;BME280;52474;52.236;5.114;2024-03-22T07:23:07;101583.00;;;9.87;100.00
59170;BME280;52474;52.236;5.114;2024-03-22T07:25:33;101585.44;;;9.77;100.00
59170;BME280;52474;52.236;5.114;2024-03-22T07:27:59;101579.28;;;9.77;100.00
59170;BME280;52474;52.236;5.114;2024-03-22T07:30:25;101572.94;;;9.79;100.00
59170;BME280;52474;52.236;5.114;2024-03-22T07:32:50;101556.78;;;9.58;100.00
59170;BME280;52474;52.236;5.114;2024-03-22T07:35:16;101560.78;;;9.64;100.00
59170;BME280;52474;52.236;5.114;2024-03-22T07:37:42;101575.28;;;9.71;100.00
59170;BME280;52474;52.236;5.114;2024-03-22T07:40:08;101577.09;;;9.71;100.00
59170;BME280;52474;52.236;5.114;2024-03-22T07:42:33;101583.31;;;9.70;100.00
59170;BME280;52474;52.236;5.114;2024-03-22T07:44:59;101538.28;;;9.45;100.00
59170;BME280;52474;52.236;5.114;2024-03-22T07:47:25;101563.75;;;9.59;100.00
59170;BME280;52474;52.236;5.114;2024-03-22T07:49:51;101539.13;;;9.46;100.00
59170;BME280;52474;52.236;5.114;2024-03-22T07:52:16;101564.72;;;9.58;100.00
59170;BME280;52474;52.236;5.114;2024-03-22T07:54:42;101565.16;;;9.65;100.00
59170;BME280;52474;52.236;5.114;2024-03-22T07:57:08;101553.81;;;9.63;100.00
59170;BME280;52474;52.236;5.114;2024-03-22T07:59:36;101563.44;;;9.64;100.00
59170;BME280;52474;52.236;5.114;2024-03-22T08:02:02;101565.03;;;9.66;100.00
59170;BME280;52474;52.236;5.114;2024-03-22T08:04:29;101532.47;;;9.53;100.00
59170;BME280;52474;52.236;5.114;2024-03-22T08:06:54;101542.41;;;9.62;100.00
59170;BME280;52474;52.236;5.114;2024-03-22T08:09:20;101542.19;;;9.65;100.00
59170;BME280;52474;52.236;5.114;2024-03-22T08:11:46;101532.75;;;9.61;100.00
59170;BME280;52474;52.236;5.114;2024-03-22T08:14:11;101545.75;;;9.64;100.00
59170;BME280;52474;52.236;5.114;2024-03-22T08:16:37;101552.13;;;9.75;100.00
59170;BME280;52474;52.236;5.114;2024-03-22T08:19:03;101563.63;;;9.74;100.00
59170;BME280;52474;52.236;5.114;2024-03-22T08:21:28;101555.19;;;9.68;100.00
59170;BME280;52474;52.236;5.114;2024-03-22T08:23:54;101560.06;;;9.75;100.00
59170;BME280;52474;52.236;5.114;2024-03-22T08:26:20;101549.06;;;9.68;100.00
59170;BME280;52474;52.236;5.114;2024-03-22T08:28:48;101570.09;;;9.82;100.00
59170;BME280;52474;52.236;5.114;2024-03-22T08:31:14;101551.66;;;9.81;100.00
59170;BME280;52474;52.236;5.114;2024-03-22T08:33:40;101543.09;;;9.90;100.00
59170;BME280;52474;52.236;5.114;2024-03-22T08:36:06;101536.22;;;9.87;100.00
59170;BME280;52474;52.236;5.114;2024-03-22T08:38:32;101550.91;;;9.92;100.00
59170;BME280;52474;52.236;5.114;2024-03-22T08:40:58;101532.00;;;9.85;100.00
59170;BME280;52474;52.236;5.114;2024-03-22T08:43:24;101534.84;;;9.82;100.00
59170;BME280;52474;52.236;5.114;2024-03-22T08:45:52;101539.94;;;9.85;100.00
59170;BME280;52474;52.236;5.114;2024-03-22T08:48:17;101534.53;;;9.74;100.00
59170;BME280;52474;52.236;5.114;2024-03-22T08:50:44;101540.88;;;9.84;100.00
59170;BME280;52474;52.236;5.114;2024-03-22T08:53:09;101521.09;;;9.77;100.00
59170;BME280;52474;52.236;5.114;2024-03-22T08:55:35;101531.13;;;9.84;100.00
59170;BME280;52474;52.236;5.114;2024-03-22T08:58:01;101519.59;;;9.85;100.00
59170;BME280;52474;52.236;5.114;2024-03-22T09:00:26;101514.22;;;9.87;100.00
59170;BME280;52474;52.236;5.114;2024-03-22T09:02:52;101533.84;;;9.96;100.00
59170;BME280;52474;52.236;5.114;2024-03-22T09:05:18;101520.03;;;9.79;100.00
59170;BME280;52474;52.236;5.114;2024-03-22T09:07:44;101526.69;;;9.85;100.00
59170;BME280;52474;52.236;5.114;2024-03-22T09:10:11;101518.34;;;9.78;100.00
59170;BME280;52474;52.236;5.114;2024-03-22T09:12:37;101507.25;;;9.73;100.00
59170;BME280;52474;52.236;5.114;2024-03-22T09:15:03;101532.03;;;9.72;100.00
59170;BME280;52474;52.236;5.114;2024-03-22T09:17:28;101519.84;;;9.70;100.00
59170;BME280;52474;52.236;5.114;2024-03-22T09:19:55;101507.38;;;9.59;100.00
59170;BME280;52474;52.236;5.114;2024-03-22T09:22:20;101523.91;;;9.62;100.00
59170;BME280;52474;52.236;5.114;2024-03-22T09:24:46;101513.94;;;9.66;100.00
59170;BME280;52474;52.236;5.114;2024-03-22T09:27:11;101490.78;;;9.57;100.00
59170;BME280;52474;52.236;5.114;2024-03-22T09:29:37;101511.69;;;9.73;100.00
59170;BME280;52474;52.236;5.114;2024-03-22T09:32:03;101500.81;;;9.64;100.00
59170;BME280;52474;52.236;5.114;2024-03-22T09:34:29;101505.72;;;9.82;100.00
59170;BME280;52474;52.236;5.114;2024-03-22T09:36:55;101495.47;;;9.90;100.00
59170;BME280;52474;52.236;5.114;2024-03-22T09:39:24;101490.28;;;9.88;100.00
59170;BME280;52474;52.236;5.114;2024-03-22T09:41:51;101496.91;;;9.94;100.00
59170;BME280;52474;52.236;5.114;2024-03-22T09:44:20;101491.75;;;9.93;100.00
59170;BME280;52474;52.236;5.114;2024-03-22T09:46:47;101488.69;;;9.86;100.00
59170;BME280;52474;52.236;5.114;2024-03-22T09:49:12;101474.84;;;9.82;100.00
59170;BME280;52474;52.236;5.114;2024-03-22T09:51:39;101486.69;;;9.89;100.00
59170;BME280;52474;52.236;5.114;2024-03-22T09:54:06;101485.25;;;9.97;100.00
59170;BME280;52474;52.236;5.114;2024-03-22T09:56:32;101481.44;;;10.01;100.00
59170;BME280;52474;52.236;5.114;2024-03-22T09:58:59;101478.53;;;9.93;100.00
59170;BME280;52474;52.236;5.114;2024-03-22T10:01:25;101472.25;;;9.94;100.00
59170;BME280;52474;52.236;5.114;2024-03-22T10:03:52;101457.03;;;9.97;100.00
59170;BME280;52474;52.236;5.114;2024-03-22T10:06:18;101458.44;;;10.14;100.00
59170;BME280;52474;52.236;5.114;2024-03-22T10:08:44;101462.38;;;10.32;100.00
59170;BME280;52474;52.236;5.114;2024-03-22T10:11:10;101466.72;;;10.34;100.00
59170;BME280;52474;52.236;5.114;2024-03-22T10:13:36;101439.44;;;10.20;100.00
59170;BME280;52474;52.236;5.114;2024-03-22T10:16:02;101458.25;;;10.52;100.00
59170;BME280;52474;52.236;5.114;2024-03-22T10:18:28;101470.66;;;10.52;100.00
59170;BME280;52474;52.236;5.114;2024-03-22T10:21:01;101470.44;;;10.66;100.00
59170;BME280;52474;52.236;5.114;2024-03-22T10:23:28;101472.88;;;10.69;100.00
59170;BME280;52474;52.236;5.114;2024-03-22T10:25:56;101466.44;;;10.61;100.00
59170;BME280;52474;52.236;5.114;2024-03-22T10:28:22;101481.00;;;10.55;100.00
59170;BME280;52474;52.236;5.114;2024-03-22T10:30:50;101483.78;;;10.53;100.00
59170;BME280;52474;52.236;5.114;2024-03-22T10:33:18;101488.06;;;10.43;100.00
59170;BME280;52474;52.236;5.114;2024-03-22T10:35:46;101474.78;;;10.32;100.00
59170;BME280;52474;52.236;5.114;2024-03-22T10:38:14;101485.03;;;10.37;100.00
59170;BME280;52474;52.236;5.114;2024-03-22T10:40:44;101470.38;;;10.44;100.00
59170;BME280;52474;52.236;5.114;2024-03-22T10:43:13;101482.06;;;10.41;100.00
59170;BME280;52474;52.236;5.114;2024-03-22T10:45:40;101473.03;;;10.44;100.00
59170;BME280;52474;52.236;5.114;2024-03-22T10:48:09;101472.47;;;10.63;100.00
59170;BME280;52474;52.236;5.114;2024-03-22T10:50:38;101482.28;;;10.73;100.00
59170;BME280;52474;52.236;5.114;2024-03-22T10:53:07;101476.19;;;10.49;100.00
59170;BME280;52474;52.236;5.114;2024-03-22T10:55:38;101464.75;;;10.48;100.00
59170;BME280;52474;52.236;5.114;2024-03-22T10:58:04;101463.66;;;10.51;100.00
59170;BME280;52474;52.236;5.114;2024-03-22T11:00:32;101480.50;;;10.50;100.00
59170;BME280;52474;52.236;5.114;2024-03-22T11:02:58;101470.88;;;10.49;100.00
59170;BME280;52474;52.236;5.114;2024-03-22T11:05:26;101465.69;;;10.47;100.00
59170;BME280;52474;52.236;5.114;2024-03-22T11:08:02;101462.66;;;10.41;100.00
59170;BME280;52474;52.236;5.114;2024-03-22T11:10:35;101453.25;;;10.37;100.00
59170;BME280;52474;52.236;5.114;2024-03-22T11:13:05;101472.00;;;10.34;100.00
59170;BME280;52474;52.236;5.114;2024-03-22T11:15:33;101470.97;;;10.23;100.00
59170;BME280;52474;52.236;5.114;2024-03-22T11:17:59;101473.06;;;10.31;100.00
59170;BME280;52474;52.236;5.114;2024-03-22T11:20:25;101473.75;;;10.22;100.00
59170;BME280;52474;52.236;5.114;2024-03-22T11:22:52;101453.00;;;10.16;100.00
59170;BME280;52474;52.236;5.114;2024-03-22T11:25:19;101460.00;;;10.41;100.00
59170;BME280;52474;52.236;5.114;2024-03-22T11:27:45;101453.78;;;10.53;100.00
59170;BME280;52474;52.236;5.114;2024-03-22T11:30:11;101445.78;;;10.77;100.00
59170;BME280;52474;52.236;5.114;2024-03-22T11:32:37;101449.66;;;10.84;100.00
59170;BME280;52474;52.236;5.114;2024-03-22T11:35:11;101445.31;;;10.94;100.00
59170;BME280;52474;52.236;5.114;2024-03-22T11:37:41;101433.16;;;10.81;100.00
59170;BME280;52474;52.236;5.114;2024-03-22T11:40:10;101439.91;;;10.96;100.00
59170;BME280;52474;52.236;5.114;2024-03-22T11:42:41;101440.16;;;11.04;100.00
59170;BME280;52474;52.236;5.114;2024-03-22T11:45:11;101433.44;;;11.00;100.00
59170;BME280;52474;52.236;5.114;2024-03-22T11:47:37;101450.72;;;10.82;100.00
59170;BME280;52474;52.236;5.114;2024-03-22T11:50:03;101454.31;;;10.69;100.00
59170;BME280;52474;52.236;5.114;2024-03-22T11:52:29;101438.09;;;10.96;100.00
59170;BME280;52474;52.236;5.114;2024-03-22T11:54:56;101435.34;;;11.09;100.00
59170;BME280;52474;52.236;5.114;2024-03-22T11:57:22;101449.16;;;10.79;100.00
59170;BME280;52474;52.236;5.114;2024-03-22T11:59:48;101448.53;;;10.64;100.00
59170;BME280;52474;52.236;5.114;2024-03-22T12:02:14;101447.06;;;10.60;100.00
59170;BME280;52474;52.236;5.114;2024-03-22T12:04:49;101445.59;;;10.45;100.00
59170;BME280;52474;52.236;5.114;2024-03-22T12:07:16;101454.25;;;10.47;100.00
59170;BME280;52474;52.236;5.114;2024-03-22T12:09:45;101433.03;;;10.71;100.00
59170;BME280;52474;52.236;5.114;2024-03-22T12:12:12;101428.81;;;11.02;100.00
59170;BME280;52474;52.236;5.114;2024-03-22T12:14:38;101425.69;;;11.31;100.00
59170;BME280;52474;52.236;5.114;2024-03-22T12:17:05;101428.84;;;11.13;100.00
59170;BME280;52474;52.236;5.114;2024-03-22T12:19:31;101441.72;;;10.95;100.00
59170;BME280;52474;52.236;5.114;2024-03-22T12:21:56;101436.28;;;10.86;100.00
59170;BME280;52474;52.236;5.114;2024-03-22T12:24:23;101447.59;;;10.77;100.00
59170;BME280;52474;52.236;5.114;2024-03-22T12:26:49;101439.66;;;10.77;100.00
59170;BME280;52474;52.236;5.114;2024-03-22T12:29:16;101429.06;;;10.88;100.00
59170;BME280;52474;52.236;5.114;2024-03-22T12:31:42;101416.31;;;11.15;100.00
59170;BME280;52474;52.236;5.114;2024-03-22T12:34:08;101432.31;;;11.36;100.00
59170;BME280;52474;52.236;5.114;2024-03-22T12:36:34;101436.84;;;11.68;100.00
59170;BME280;52474;52.236;5.114;2024-03-22T12:39:00;101424.16;;;11.83;100.00